Time;durP1;ratioP1;P1;durP2;ratioP2;P2;SDS_P1;SDS_P2;PMS_P1;PMS_P2;Temp;Humidity;BMP_temperature;BMP_pressure;BME280_temperature;BME280_humidity;BME280_pressure;Samples;Min_cycle;Max_cycle;Signal;HPM_P1;HPM_P2
2022/03/30 00:01:50;;;;;;;0.00;0.00;;;;;;;10.37;61.63;97474.19;4990641;28;20204;-57
2022/03/30 00:04:17;;;;;;;0.00;0.00;;;;;;;10.45;60.94;97478.53;4990035;28;20183;-56
2022/03/30 00:06:43;;;;;;;0.00;0.00;;;;;;;10.47;61.00;97472.16;4990677;28;20217;-57
2022/03/30 00:09:12;;;;;;;0.00;0.00;;;;;;;10.47;59.76;97480.00;4990826;28;20211;-57
2022/03/30 00:11:39;;;;;;;0.00;0.00;;;;;;;10.49;61.39;97479.78;4990346;28;20186;-58
2022/03/30 00:14:06;;;;;;;0.00;0.00;;;;;;;10.54;60.34;97469.63;4990251;28;20209;-58
2022/03/30 00:16:35;;;;;;;0.00;0.00;;;;;;;10.51;60.95;97477.03;4990350;28;20217;-58
2022/03/30 00:19:01;;;;;;;0.00;0.00;;;;;;;10.48;60.82;97473.78;4990785;28;20190;-58
2022/03/30 00:21:28;;;;;;;0.00;0.00;;;;;;;10.52;62.06;97473.44;4990502;28;20204;-58
2022/03/30 00:23:55;;;;;;;0.00;0.00;;;;;;;10.47;62.45;97459.13;4990567;28;20669;-58
2022/03/30 00:26:23;;;;;;;0.00;0.00;;;;;;;10.47;62.76;97458.28;4989764;28;20269;-58
2022/03/30 00:28:50;;;;;;;0.00;0.00;;;;;;;10.47;65.01;97458.28;4990385;28;20185;-58
2022/03/30 00:31:18;;;;;;;0.00;0.00;;;;;;;10.52;63.71;97455.16;4990604;28;20205;-58
2022/03/30 00:33:46;;;;;;;0.00;0.00;;;;;;;10.46;63.49;97457.50;4990426;28;20236;-58
2022/03/30 00:36:13;;;;;;;0.00;0.00;;;;;;;10.41;66.28;97459.00;4990085;28;20215;-58
2022/03/30 00:38:40;;;;;;;0.00;0.00;;;;;;;10.37;67.52;97455.09;4991733;28;20282;-58
2022/03/30 00:41:07;;;;;;;0.00;0.00;;;;;;;10.30;68.86;97444.59;4993772;28;20186;-58
2022/03/30 00:43:35;;;;;;;0.00;0.00;;;;;;;10.22;67.90;97439.44;4994307;28;20182;-58
2022/03/30 00:46:02;;;;;;;0.00;0.00;;;;;;;10.15;68.20;97434.94;4993794;28;20208;-58
2022/03/30 00:48:28;;;;;;;0.00;0.00;;;;;;;10.14;69.24;97440.31;5007534;28;20205;-58
2022/03/30 00:50:55;;;;;;;0.00;0.00;;;;;;;10.16;68.64;97435.72;5013364;28;20284;-58
2022/03/30 00:53:22;;;;;;;0.00;0.00;;;;;;;10.16;69.43;97427.91;5013422;28;20225;-58
2022/03/30 00:55:52;;;;;;;0.00;0.00;;;;;;;10.13;68.13;97430.88;5013125;28;20205;-58
2022/03/30 00:58:19;;;;;;;0.00;0.00;;;;;;;10.12;68.10;97426.66;5011372;28;20273;-58
2022/03/30 01:00:47;;;;;;;0.00;0.00;;;;;;;10.11;66.04;97425.03;5011794;28;20192;-58
2022/03/30 01:03:14;;;;;;;0.00;0.00;;;;;;;10.14;64.50;97424.66;5013129;28;20190;-58
2022/03/30 01:05:42;;;;;;;0.00;0.00;;;;;;;10.15;64.48;97421.91;5013093;28;20305;-58
2022/03/30 01:08:11;;;;;;;0.00;0.00;;;;;;;10.16;66.07;97420.09;5013510;28;20198;-58
2022/03/30 01:10:37;;;;;;;0.00;0.00;;;;;;;10.18;65.90;97416.34;5012912;28;20181;-58
2022/03/30 01:13:07;;;;;;;0.00;0.00;;;;;;;10.24;64.88;97408.78;5013217;28;20677;-58
2022/03/30 01:15:34;;;;;;;0.00;0.00;;;;;;;10.22;64.83;97405.53;5012825;28;20713;-58
2022/03/30 01:18:03;;;;;;;0.00;0.00;;;;;;;10.23;64.49;97394.13;5013352;28;20559;-58
2022/03/30 01:20:29;;;;;;;0.00;0.00;;;;;;;10.21;63.82;97403.91;5013147;28;20263;-58
2022/03/30 01:22:58;;;;;;;0.00;0.00;;;;;;;10.23;63.19;97402.75;5013333;28;20181;-58
2022/03/30 01:25:25;;;;;;;0.00;0.00;;;;;;;10.26;64.61;97399.78;5012592;28;20212;-58
2022/03/30 01:27:51;;;;;;;0.00;0.00;;;;;;;10.25;64.80;97382.50;5013034;28;20183;-58
2022/03/30 01:33:05;;;;;;;0.00;0.00;;;;;;;10.24;64.56;97380.09;5013057;28;20224;-58
2022/03/30 01:35:32;;;;;;;0.00;0.00;;;;;;;10.19;65.06;97372.78;5012551;28;20214;-58
2022/03/30 01:38:01;;;;;;;0.00;0.00;;;;;;;10.16;66.50;97366.16;5012984;28;20190;-58
2022/03/30 01:40:28;;;;;;;0.00;0.00;;;;;;;10.10;66.22;97346.00;5012346;28;20686;-57
2022/03/30 01:42:54;;;;;;;0.00;0.00;;;;;;;10.17;64.33;97359.13;5012961;28;20461;-58
2022/03/30 01:45:21;;;;;;;0.00;0.00;;;;;;;10.16;65.28;97368.75;5012439;28;20210;-57
2022/03/30 01:47:50;;;;;;;0.00;0.00;;;;;;;10.15;64.90;97345.47;5012613;28;20202;-58
2022/03/30 01:50:17;;;;;;;0.00;0.00;;;;;;;10.18;63.90;97345.09;5012185;28;20267;-58
2022/03/30 01:52:45;;;;;;;0.00;0.00;;;;;;;10.18;63.85;97345.91;5012732;28;20192;-57
2022/03/30 01:55:14;;;;;;;0.00;0.00;;;;;;;10.15;63.60;97346.28;5012007;28;20256;-58
2022/03/30 01:57:41;;;;;;;0.00;0.00;;;;;;;10.15;64.50;97338.47;5011204;28;20620;-58
2022/03/30 02:00:10;;;;;;;0.00;0.00;;;;;;;10.17;64.95;97333.06;5012087;28;20186;-58
2022/03/30 02:02:40;;;;;;;0.00;0.00;;;;;;;10.15;64.43;97343.69;5011455;28;20195;-58
2022/03/30 02:05:09;;;;;;;0.00;0.00;;;;;;;10.19;63.33;97337.09;5012136;28;20210;-58
2022/03/30 02:07:36;;;;;;;0.00;0.00;;;;;;;10.19;62.81;97334.50;5012404;28;20190;-58
2022/03/30 02:10:04;;;;;;;0.00;0.00;;;;;;;10.16;62.84;97327.03;5012373;28;20195;-58
2022/03/30 02:12:33;;;;;;;0.00;0.00;;;;;;;10.15;63.50;97324.59;5012544;28;20261;-58
2022/03/30 02:15:00;;;;;;;0.00;0.00;;;;;;;10.13;64.10;97318.75;5011982;28;20244;-58
2022/03/30 02:17:27;;;;;;;0.00;0.00;;;;;;;10.11;63.79;97325.94;5012309;28;20235;-58
2022/03/30 02:19:55;;;;;;;0.00;0.00;;;;;;;10.13;63.53;97332.63;5012087;28;20182;-58
2022/03/30 02:22:23;;;;;;;0.00;0.00;;;;;;;10.15;64.13;97329.81;5012214;28;20201;-58
2022/03/30 02:24:50;;;;;;;0.00;0.00;;;;;;;10.19;64.35;97329.28;5011745;28;20215;-58
2022/03/30 02:27:18;;;;;;;0.00;0.00;;;;;;;10.33;59.87;97332.06;5011913;28;20794;-58
2022/03/30 02:29:48;;;;;;;0.00;0.00;;;;;;;10.50;58.93;97318.88;5011783;28;20186;-58
2022/03/30 02:32:15;;;;;;;0.00;0.00;;;;;;;10.75;57.05;97320.13;5009584;28;20317;-58
2022/03/30 02:34:43;;;;;;;0.00;0.00;;;;;;;10.94;56.59;97323.16;5007579;28;20226;-58
2022/03/30 02:37:10;;;;;;;0.00;0.00;;;;;;;11.00;57.12;97317.19;5005975;28;20265;-58
2022/03/30 02:39:37;;;;;;;0.00;0.00;;;;;;;11.06;57.41;97320.88;5011594;28;20189;-58
2022/03/30 02:42:07;;;;;;;0.00;0.00;;;;;;;11.08;57.29;97314.44;5010586;28;20197;-59
2022/03/30 02:44:35;;;;;;;0.00;0.00;;;;;;;11.09;59.34;97320.50;5011465;28;20198;-58
2022/03/30 02:47:04;;;;;;;0.00;0.00;;;;;;;11.13;59.96;97324.31;5010213;28;20585;-58
2022/03/30 02:49:31;;;;;;;0.00;0.00;;;;;;;11.19;58.99;97320.19;5011753;28;20845;-58
2022/03/30 02:51:58;;;;;;;35.83;11.40;;;;;;;11.19;60.00;97322.78;5011704;28;20244;-58
2022/03/30 02:54:25;;;;;;;31.30;11.90;;;;;;;11.23;59.45;97326.66;5011313;28;20269;-59
2022/03/30 02:56:52;;;;;;;34.83;11.90;;;;;;;11.21;61.95;97324.22;5011718;28;20210;-59
2022/03/30 02:59:18;;;;;;;28.37;9.63;;;;;;;11.25;61.02;97332.50;5011863;28;20180;-59
2022/03/30 03:01:45;;;;;;;27.37;9.97;;;;;;;11.29;62.13;97333.72;5010685;28;20242;-59
2022/03/30 03:04:13;;;;;;;29.90;10.63;;;;;;;11.18;65.03;97344.69;5011244;28;20190;-59
2022/03/30 03:06:40;;;;;;;0.00;0.00;;;;;;;11.09;66.72;97344.00;5011585;28;20267;-58
2022/03/30 03:09:08;;;;;;;0.00;0.00;;;;;;;10.97;65.87;97354.09;5011610;28;20193;-58
2022/03/30 03:11:35;;;;;;;0.00;0.00;;;;;;;10.85;68.06;97348.56;5011412;28;20190;-58
2022/03/30 03:14:05;;;;;;;0.00;0.00;;;;;;;10.66;70.49;97365.59;5011283;28;20291;-58
2022/03/30 03:16:32;;;;;;;0.00;0.00;;;;;;;10.51;73.00;97363.03;5011366;28;20220;-58
2022/03/30 03:18:58;;;;;;;0.00;0.00;;;;;;;10.43;74.70;97363.13;5011563;28;20316;-58
2022/03/30 03:21:27;;;;;;;0.00;0.00;;;;;;;10.15;76.26;97356.72;5011124;28;20193;-58
2022/03/30 03:23:53;;;;;;;0.00;0.00;;;;;;;10.10;80.91;97358.22;5011314;28;20310;-58
2022/03/30 03:26:20;;;;;;;0.00;0.00;;;;;;;10.00;82.25;97353.28;5010346;28;20724;-58
2022/03/30 03:28:47;;;;;;;0.00;0.00;;;;;;;9.93;83.34;97352.38;5010437;28;20211;-58
2022/03/30 03:31:14;;;;;;;0.00;0.00;;;;;;;9.88;84.20;97345.91;5008316;28;20193;-58
2022/03/30 03:33:40;;;;;;;0.00;0.00;;;;;;;9.84;86.60;97342.03;5011001;28;20206;-59
2022/03/30 03:36:07;;;;;;;0.00;0.00;;;;;;;9.76;86.33;97339.50;4991113;28;20212;-58
2022/03/30 03:38:35;;;;;;;0.00;0.00;;;;;;;9.65;87.27;97340.75;4991714;28;20197;-58
2022/03/30 03:41:02;;;;;;;0.00;0.00;;;;;;;9.66;88.65;97344.97;4991357;28;20192;-58
2022/03/30 03:43:29;;;;;;;0.00;0.00;;;;;;;9.58;89.28;97337.22;4991619;28;20598;-58
2022/03/30 03:45:56;;;;;;;0.00;0.00;;;;;;;9.60;90.79;97341.25;4991075;28;20752;-58
2022/03/30 03:48:22;;;;;;;0.00;0.00;;;;;;;9.58;90.31;97334.63;4991699;28;20198;-58
2022/03/30 03:50:49;;;;;;;0.00;0.00;;;;;;;9.52;92.11;97335.31;4991320;28;20239;-58
2022/03/30 03:53:16;;;;;;;0.00;0.00;;;;;;;9.54;91.78;97334.16;4991458;28;20209;-58
2022/03/30 03:55:44;;;;;;;0.00;0.00;;;;;;;9.51;93.09;97334.53;4990982;28;20203;-59
2022/03/30 03:58:12;;;;;;;0.00;0.00;;;;;;;9.49;92.51;97330.47;4991456;28;20190;-59
2022/03/30 04:00:39;;;;;;;0.00;0.00;;;;;;;9.48;93.21;97334.88;4991187;28;20672;-58
2022/03/30 04:03:06;;;;;;;0.00;0.00;;;;;;;9.46;94.74;97326.44;4991712;28;20238;-58
2022/03/30 04:05:33;;;;;;;0.00;0.00;;;;;;;9.46;94.05;97329.03;4991043;28;20228;-58
2022/03/30 04:08:00;;;;;;;0.00;0.00;;;;;;;9.45;93.84;97319.59;4991458;28;20528;-58
2022/03/30 04:10:27;;;;;;;0.00;0.00;;;;;;;9.39;96.10;97320.28;4990956;28;20202;-58
2022/03/30 04:12:57;;;;;;;0.00;0.00;;;;;;;9.37;95.44;97319.66;4993101;28;20194;-58
2022/03/30 04:15:24;;;;;;;0.00;0.00;;;;;;;9.39;95.02;97317.69;4994810;28;20254;-58
2022/03/30 04:17:52;;;;;;;0.00;0.00;;;;;;;9.37;96.29;97306.66;4994049;28;20200;-58
2022/03/30 04:20:19;;;;;;;0.00;0.00;;;;;;;9.34;96.06;97309.59;4995007;28;20194;-58
2022/03/30 04:22:47;;;;;;;0.00;0.00;;;;;;;9.29;96.40;97310.94;4995223;28;20183;-59
2022/03/30 04:25:14;;;;;;;0.00;0.00;;;;;;;9.27;96.75;97305.09;4994504;28;20218;-59
2022/03/30 04:27:48;;;;;;;0.00;0.00;;;;;;;9.30;97.19;97304.75;4995095;28;20182;-58
2022/03/30 04:30:19;;;;;;;0.00;0.00;;;;;;;9.28;98.01;97304.09;4994976;28;20242;-58
2022/03/30 04:32:46;;;;;;;0.00;0.00;;;;;;;9.29;98.75;97284.06;4995278;28;20197;-59
2022/03/30 04:35:14;;;;;;;0.00;0.00;;;;;;;9.25;97.87;97294.03;4994432;28;20210;-58
2022/03/30 04:37:41;;;;;;;0.00;0.00;;;;;;;9.24;98.01;97284.59;4994883;28;20188;-59
2022/03/30 04:40:09;;;;;;;0.00;0.00;;;;;;;9.25;98.58;97280.19;4994575;28;20236;-58
2022/03/30 04:42:36;;;;;;;0.00;0.00;;;;;;;9.25;97.74;97272.38;4994910;28;20182;-58
2022/03/30 04:45:03;;;;;;;0.00;0.00;;;;;;;9.24;98.32;97266.38;4994369;28;20184;-58
2022/03/30 04:47:32;;;;;;;0.00;0.00;;;;;;;9.22;98.58;97264.94;4994731;28;20196;-59
2022/03/30 04:49:59;;;;;;;0.00;0.00;;;;;;;9.14;99.09;97258.00;4994441;28;20203;-58
2022/03/30 04:52:26;;;;;;;0.00;0.00;;;;;;;9.15;99.10;97260.41;4994779;28;20198;-59
2022/03/30 04:54:53;;;;;;;0.00;0.00;;;;;;;9.14;100.00;97256.19;4994114;28;20337;-59
2022/03/30 04:57:20;;;;;;;0.00;0.00;;;;;;;9.11;100.00;97248.72;4994641;28;20273;-58
2022/03/30 04:59:47;;;;;;;0.00;0.00;;;;;;;9.11;100.00;97256.53;4994356;28;20199;-58
2022/03/30 05:02:14;;;;;;;0.00;0.00;;;;;;;9.11;100.00;97245.34;4994670;28;20571;-58
2022/03/30 05:04:42;;;;;;;0.00;0.00;;;;;;;9.08;100.00;97248.28;4994122;28;20246;-58
2022/03/30 05:07:10;;;;;;;0.00;0.00;;;;;;;9.06;100.00;97242.44;4993284;28;20231;-59
2022/03/30 05:09:37;;;;;;;0.00;0.00;;;;;;;9.05;100.00;97243.44;4994324;28;20659;-59
2022/03/30 05:12:04;;;;;;;0.00;0.00;;;;;;;9.01;100.00;97241.19;4994628;28;20197;-58
2022/03/30 05:14:32;;;;;;;0.00;0.00;;;;;;;9.00;100.00;97234.34;4994120;28;20208;-58
2022/03/30 05:16:59;;;;;;;0.00;0.00;;;;;;;8.99;100.00;97230.13;4994361;28;20705;-58
2022/03/30 05:19:26;;;;;;;0.00;0.00;;;;;;;8.99;100.00;97230.13;4994447;28;20192;-59
2022/03/30 05:21:54;;;;;;;0.00;0.00;;;;;;;8.95;100.00;97222.88;4994276;28;20662;-58
2022/03/30 05:24:21;;;;;;;0.00;0.00;;;;;;;8.96;100.00;97227.88;4993225;28;20191;-58
2022/03/30 05:26:49;;;;;;;0.00;0.00;;;;;;;8.98;100.00;97217.31;4996929;28;20727;-58
2022/03/30 05:29:15;;;;;;;0.00;0.00;;;;;;;8.98;100.00;97214.72;5013584;28;20254;-58
2022/03/30 05:31:42;;;;;;;0.00;0.00;;;;;;;8.98;100.00;97225.91;5013038;28;20200;-58
2022/03/30 05:34:10;;;;;;;0.00;0.00;;;;;;;9.00;100.00;97221.34;5013162;28;20668;-58
2022/03/30 05:36:37;;;;;;;0.00;0.00;;;;;;;9.03;100.00;97221.97;5011723;28;20306;-59
2022/03/30 05:39:05;;;;;;;0.00;0.00;;;;;;;9.04;100.00;97221.78;5010387;28;20201;-58
2022/03/30 05:41:33;;;;;;;0.00;0.00;;;;;;;9.06;100.00;97209.41;5012832;28;20248;-58
2022/03/30 05:44:00;;;;;;;0.00;0.00;;;;;;;9.06;100.00;97213.81;5012716;28;20194;-58
2022/03/30 05:46:27;;;;;;;0.00;0.00;;;;;;;9.08;100.00;97219.66;5013065;28;20688;-59
2022/03/30 05:48:54;;;;;;;0.00;0.00;;;;;;;9.10;100.00;97215.09;5013511;28;20221;-58
2022/03/30 05:51:21;;;;;;;0.00;0.00;;;;;;;9.10;100.00;97212.47;5013130;28;20193;-58
2022/03/30 05:53:48;;;;;;;0.00;0.00;;;;;;;9.15;100.00;97220.56;5013471;28;20189;-58
2022/03/30 05:56:16;;;;;;;0.00;0.00;;;;;;;9.15;100.00;97215.38;5012943;28;20288;-59
2022/03/30 05:58:43;;;;;;;0.00;0.00;;;;;;;9.14;100.00;97209.34;5013267;28;20189;-58
2022/03/30 06:01:13;;;;;;;0.00;0.00;;;;;;;9.18;100.00;97217.63;5012985;28;20202;-59
2022/03/30 06:03:39;;;;;;;0.00;0.00;;;;;;;9.20;100.00;97205.22;5013251;28;20220;-59
2022/03/30 06:06:06;;;;;;;0.00;0.00;;;;;;;9.20;100.00;97209.63;5012824;28;20205;-59
2022/03/30 06:08:34;;;;;;;0.00;0.00;;;;;;;9.23;100.00;97209.25;5013039;28;20608;-58
2022/03/30 06:11:01;;;;;;;0.00;0.00;;;;;;;9.24;100.00;97209.09;5013023;28;20553;-59
2022/03/30 06:13:29;;;;;;;0.00;0.00;;;;;;;9.27;100.00;97202.72;5013189;28;20192;-59
2022/03/30 06:15:56;;;;;;;0.00;0.00;;;;;;;9.24;100.00;97210.88;5012579;28;20240;-59
2022/03/30 06:18:23;;;;;;;0.00;0.00;;;;;;;9.21;100.00;97203.41;5012960;28;20190;-59
2022/03/30 06:20:50;;;;;;;0.00;0.00;;;;;;;9.26;100.00;97201.09;5012624;28;20201;-58
2022/03/30 06:23:17;;;;;;;0.00;0.00;;;;;;;9.24;100.00;97197.88;5012875;28;20196;-59
2022/03/30 06:25:44;;;;;;;0.00;0.00;;;;;;;9.29;100.00;97201.56;5012179;28;20226;-59
2022/03/30 06:28:10;;;;;;;0.00;0.00;;;;;;;9.26;100.00;97198.50;5012686;28;20203;-58
2022/03/30 06:30:39;;;;;;;0.00;0.00;;;;;;;9.30;100.00;97197.16;5012525;28;20189;-59
2022/03/30 06:33:06;;;;;;;0.00;0.00;;;;;;;9.35;100.00;97200.03;5012785;28;20815;-58
2022/03/30 06:35:32;;;;;;;0.00;0.00;;;;;;;9.37;100.00;97207.69;5011349;28;20227;-59
2022/03/30 06:37:59;;;;;;;0.00;0.00;;;;;;;9.34;100.00;97208.03;5010917;28;20206;-58
2022/03/30 06:40:26;;;;;;;0.00;0.00;;;;;;;9.36;100.00;97212.06;5012190;28;20193;-59
2022/03/30 06:42:54;;;;;;;0.00;0.00;;;;;;;9.43;100.00;97215.59;5012988;28;20536;-59
2022/03/30 06:45:22;;;;;;;0.00;0.00;;;;;;;9.47;100.00;97207.41;5011965;28;20206;-59
2022/03/30 06:47:50;;;;;;;0.00;0.00;;;;;;;9.45;100.00;97210.22;5012457;28;20246;-59
2022/03/30 06:50:19;;;;;;;0.00;0.00;;;;;;;9.48;100.00;97206.44;5012162;28;20217;-59
2022/03/30 06:52:46;;;;;;;0.00;0.00;;;;;;;9.47;100.00;97203.03;5012477;28;20239;-59
2022/03/30 06:55:14;;;;;;;0.00;0.00;;;;;;;9.44;100.00;97208.59;5011673;28;20223;-59
2022/03/30 06:57:41;;;;;;;0.00;0.00;;;;;;;9.40;100.00;97199.50;5012299;28;20272;-59
2022/03/30 07:00:08;;;;;;;0.00;0.00;;;;;;;9.45;100.00;97205.00;5011935;28;20188;-59
2022/03/30 07:02:35;;;;;;;0.00;0.00;;;;;;;9.48;100.00;97199.44;5012229;28;20187;-59
2022/03/30 07:05:04;;;;;;;0.00;0.00;;;;;;;9.51;100.00;97201.69;5011583;28;20582;-59
2022/03/30 07:10:16;;;;;;;0.00;0.00;;;;;;;9.58;100.00;97196.53;5011906;28;20200;-59
2022/03/30 07:12:43;;;;;;;0.00;0.00;;;;;;;9.58;97.24;97191.34;5012073;28;20582;-59
2022/03/30 07:15:10;;;;;;;0.00;0.00;;;;;;;9.62;96.01;97192.59;5011367;28;20212;-59
2022/03/30 07:17:44;;;;;;;0.00;0.00;;;;;;;9.66;96.46;97193.03;5012016;28;20194;-59
2022/03/30 07:20:13;;;;;;;0.00;0.00;;;;;;;9.68;95.72;97191.06;5011512;28;20202;-59
2022/03/30 07:22:40;;;;;;;0.00;0.00;;;;;;;9.72;97.84;97190.53;5011885;28;20251;-59
2022/03/30 07:25:08;;;;;;;0.00;0.00;;;;;;;9.74;96.64;97185.94;5011286;28;20684;-60
2022/03/30 07:27:35;;;;;;;0.00;0.00;;;;;;;9.78;96.13;97183.78;5011835;28;20250;-59
2022/03/30 07:30:02;;;;;;;0.00;0.00;;;;;;;9.75;94.68;97181.53;5011537;28;20190;-59
2022/03/30 07:32:29;;;;;;;0.00;0.00;;;;;;;9.81;95.46;97182.63;5011678;28;20186;-59
2022/03/30 07:34:55;;;;;;;0.00;0.00;;;;;;;9.81;95.90;97183.41;5011125;28;20214;-59
2022/03/30 07:37:23;;;;;;;0.00;0.00;;;;;;;9.82;96.31;97179.81;5011614;28;20188;-59
2022/03/30 07:39:51;;;;;;;0.00;0.00;;;;;;;9.81;95.22;97175.59;5011619;28;20245;-59
2022/03/30 07:42:17;;;;;;;0.00;0.00;;;;;;;9.86;95.09;97175.84;5011550;28;20202;-59
2022/03/30 07:44:44;;;;;;;0.00;0.00;;;;;;;9.91;93.88;97177.94;5011038;28;20188;-59
2022/03/30 07:47:11;;;;;;;0.00;0.00;;;;;;;9.96;93.36;97172.16;5010878;28;20178;-59
2022/03/30 07:49:38;;;;;;;0.00;0.00;;;;;;;10.01;92.91;97172.41;5011100;28;20202;-59
2022/03/30 07:52:05;;;;;;;0.00;0.00;;;;;;;10.10;93.16;97173.94;5011384;28;20197;-59
2022/03/30 07:54:33;;;;;;;0.00;0.00;;;;;;;10.13;94.08;97173.56;5010917;28;20267;-59
2022/03/30 07:57:00;;;;;;;0.00;0.00;;;;;;;10.17;94.63;97177.41;5011027;28;20210;-59
2022/03/30 07:59:27;;;;;;;0.00;0.00;;;;;;;10.11;91.15;97175.53;5011064;28;20668;-59
2022/03/30 08:01:57;;;;;;;0.00;0.00;;;;;;;10.23;91.37;97181.06;5010716;28;20249;-59
2022/03/30 08:04:24;;;;;;;0.00;0.00;;;;;;;10.30;91.56;97174.13;5010572;28;20205;-59
2022/03/30 08:06:51;;;;;;;0.00;0.00;;;;;;;10.39;91.02;97179.22;5011163;28;20229;-59
2022/03/30 08:09:17;;;;;;;0.00;0.00;;;;;;;10.46;91.13;97173.13;5011020;28;20186;-59
2022/03/30 08:11:46;;;;;;;0.00;0.00;;;;;;;10.52;91.41;97181.22;5010725;28;20187;-59
2022/03/30 08:14:13;;;;;;;0.00;0.00;;;;;;;10.55;90.60;97186.06;5010493;28;20185;-59
2022/03/30 08:16:41;;;;;;;0.00;0.00;;;;;;;10.59;89.01;97184.69;5010777;28;20300;-59
2022/03/30 08:19:08;;;;;;;0.00;0.00;;;;;;;10.46;89.65;97186.19;5011583;28;20193;-59
2022/03/30 08:24:20;;;;;;;0.00;0.00;;;;;;;10.48;89.47;97199.84;5005942;28;20210;-60
2022/03/30 08:26:49;;;;;;;0.00;0.00;;;;;;;10.60;88.60;97187.09;5004226;28;20213;-60
2022/03/30 08:29:16;;;;;;;0.00;0.00;;;;;;;10.57;87.93;97187.47;5005489;28;20285;-60
2022/03/30 08:31:42;;;;;;;0.00;0.00;;;;;;;10.62;89.17;97194.72;5004549;28;20681;-59
2022/03/30 08:34:09;;;;;;;0.00;0.00;;;;;;;10.61;89.58;97195.72;5002067;28;20194;-60
2022/03/30 08:36:36;;;;;;;0.00;0.00;;;;;;;10.72;87.19;97192.63;5006342;28;20323;-60
2022/03/30 08:39:10;;;;;;;0.00;0.00;;;;;;;10.68;87.18;97196.59;5002998;28;20223;-60
2022/03/30 08:41:40;;;;;;;0.00;0.00;;;;;;;10.60;87.32;97189.72;5000439;28;20290;-61
2022/03/30 08:44:09;;;;;;;0.00;0.00;;;;;;;10.64;88.01;97192.75;5006609;28;20198;-59
2022/03/30 08:46:35;;;;;;;0.00;0.00;;;;;;;10.65;87.06;97196.97;5007583;28;20690;-59
2022/03/30 08:49:02;;;;;;;0.00;0.00;;;;;;;10.67;87.45;97196.81;5004152;28;20198;-59
2022/03/30 08:51:29;;;;;;;0.00;0.00;;;;;;;10.39;86.61;97197.50;4998728;28;20187;-59
2022/03/30 08:53:56;;;;;;;21.30;9.20;;;;;;;10.50;86.83;97194.44;5000115;28;20183;-60
2022/03/30 08:56:24;;;;;;;21.40;7.60;;;;;;;10.46;87.13;97191.41;5001184;28;20224;-59
2022/03/30 08:58:55;;;;;;;29.03;8.73;;;;;;;10.48;86.64;97204.25;5005724;28;20269;-59
2022/03/30 09:01:24;;;;;;;22.13;7.33;;;;;;;10.37;87.68;97202.09;5008896;28;20198;-60
2022/03/30 09:03:57;;;;;;;75.30;38.17;;;;;;;10.32;87.93;97200.84;5013926;28;20190;-59
2022/03/30 09:06:35;;;;;;;25.67;9.40;;;;;;;10.26;87.97;97200.78;5013768;28;20231;-60
2022/03/30 09:09:03;;;;;;;31.87;16.17;;;;;;;10.27;88.32;97194.56;5013674;28;20186;-59
2022/03/30 09:11:37;;;;;;;22.57;8.17;;;;;;;10.24;89.18;97198.34;5001592;28;20183;-59
2022/03/30 09:14:06;;;;;;;30.80;9.83;;;;;;;10.30;89.87;97200.22;5001982;28;20203;-59
2022/03/30 09:16:42;;;;;;;20.03;9.43;;;;;;;10.29;90.79;97203.81;5003565;28;20555;-60
2022/03/30 09:19:10;;;;;;;20.70;9.70;;;;;;;10.26;88.90;97198.97;5003812;28;20190;-59
2022/03/30 09:21:40;;;;;;;26.87;9.97;;;;;;;10.25;89.58;97192.13;5001926;28;20194;-59
2022/03/30 09:24:07;;;;;;;18.77;8.53;;;;;;;10.32;88.79;97200.03;4998107;28;20195;-59
2022/03/30 09:26:35;;;;;;;23.00;8.17;;;;;;;10.36;88.71;97196.06;5013464;28;20208;-59
2022/03/30 09:29:02;;;;;;;22.03;8.67;;;;;;;10.48;88.79;97193.81;5012811;28;20184;-59
2022/03/30 09:31:31;;;;;;;17.77;8.10;;;;;;;10.52;86.05;97192.44;5012817;28;20270;-60
2022/03/30 09:34:02;;;;;;;18.10;7.53;;;;;;;10.48;88.51;97183.38;5013059;28;20265;-59
2022/03/30 09:36:29;;;;;;;20.70;8.20;;;;;;;10.42;87.86;97184.94;5013668;28;20220;-59
2022/03/30 09:38:56;;;;;;;22.53;9.10;;;;;;;10.44;88.19;97193.38;5013649;28;20181;-59
2022/03/30 09:41:23;;;;;;;24.63;9.10;;;;;;;10.40;86.97;97193.91;5013356;28;20219;-59
2022/03/30 09:44:01;;;;;;;22.20;8.40;;;;;;;10.50;87.95;97189.22;5013428;28;20178;-59
2022/03/30 09:46:28;;;;;;;23.70;8.83;;;;;;;10.43;85.64;97191.78;5013381;28;20207;-59
2022/03/30 09:48:56;;;;;;;27.90;9.27;;;;;;;10.44;86.58;97189.94;5013603;28;20185;-59
2022/03/30 09:51:27;;;;;;;21.67;8.70;;;;;;;10.37;87.73;97183.81;5013206;28;20641;-59
2022/03/30 09:53:54;;;;;;;25.17;8.77;;;;;;;10.42;86.87;97190.16;5013180;28;20653;-59
2022/03/30 09:56:23;;;;;;;23.07;8.90;;;;;;;10.37;87.91;97184.66;5012787;28;20206;-51
2022/03/30 09:58:58;;;;;;;19.80;9.13;;;;;;;10.82;85.67;97183.66;5013339;28;20188;-48
2022/03/30 10:01:29;;;;;;;17.67;8.60;;;;;;;10.85;87.29;97189.34;5011684;28;20559;-49
2022/03/30 10:03:59;;;;;;;24.30;9.35;;;;;;;11.07;83.04;97177.06;5012881;28;20453;-59
2022/03/30 10:06:29;;;;;;;21.20;8.97;;;;;;;10.92;84.05;97184.16;5012650;28;20693;-59
2022/03/30 10:08:57;;;;;;;19.53;8.53;;;;;;;10.90;85.41;97171.31;5012704;28;20235;-59
2022/03/30 10:11:26;;;;;;;21.97;9.33;;;;;;;10.90;84.07;97178.31;5012529;28;20198;-59
2022/03/30 10:13:55;;;;;;;23.17;10.23;;;;;;;10.78;83.82;97171.00;5012731;28;20857;-60
2022/03/30 10:16:23;;;;;;;22.40;8.80;;;;;;;10.91;84.58;97172.94;5012520;28;20217;-59
2022/03/30 10:18:51;;;;;;;24.83;9.70;;;;;;;10.89;85.01;97166.25;5012937;28;20670;-60
2022/03/30 10:21:24;;;;;;;23.67;8.83;;;;;;;10.85;85.46;97165.84;5012441;28;20265;-59
2022/03/30 10:24:23;;;;;;;16.10;9.23;;;;;;;10.84;83.16;97158.19;5012787;28;20177;-60
2022/03/30 10:27:00;;;;;;;19.80;9.03;;;;;;;10.84;84.45;97152.97;5012566;28;20208;-59
2022/03/30 10:29:28;;;;;;;22.17;9.17;;;;;;;10.81;85.59;97153.34;5012532;28;20189;-59
2022/03/30 10:32:13;;;;;;;23.10;9.60;;;;;;;10.81;85.42;97145.50;5012274;28;20531;-60
2022/03/30 10:34:49;;;;;;;24.13;9.77;;;;;;;10.82;85.79;97147.13;5012221;28;20199;-59
2022/03/30 10:37:24;;;;;;;19.57;8.77;;;;;;;10.81;86.56;97146.34;5012402;28;20745;-59
2022/03/30 10:40:05;;;;;;;18.63;9.80;;;;;;;10.76;85.99;97135.66;5012337;28;20199;-60
2022/03/30 10:43:00;;;;;;;18.63;9.47;;;;;;;10.82;87.40;97134.06;5012516;28;20193;-59
2022/03/30 10:45:33;;;;;;;21.93;9.50;;;;;;;10.79;87.50;97137.88;5011841;28;20296;-59
2022/03/30 10:48:16;;;;;;;23.03;9.83;;;;;;;10.85;87.13;97124.09;5011691;28;20197;-60
2022/03/30 10:50:47;;;;;;;23.07;10.07;;;;;;;10.96;87.27;97114.91;5002044;28;20218;-60
2022/03/30 10:53:35;;;;;;;24.47;9.50;;;;;;;10.92;88.23;97124.94;5001263;28;20201;-60
2022/03/30 10:56:28;;;;;;;60.73;30.90;;;;;;;10.17;87.71;97146.13;5001562;28;20276;-59
2022/03/30 10:59:09;;;;;;;66.77;31.83;;;;;;;9.60;94.22;97147.69;5002915;28;20183;-60
2022/03/30 11:01:38;;;;;;;54.73;28.87;;;;;;;9.51;95.09;97152.19;5001250;28;20192;-59
2022/03/30 11:04:07;;;;;;;61.80;29.27;;;;;;;9.44;94.75;97149.47;4999623;28;20196;-60
2022/03/30 11:06:36;;;;;;;24.90;14.83;;;;;;;8.92;98.77;97158.94;4995934;28;20219;-60
2022/03/30 11:09:05;;;;;;;36.33;17.87;;;;;;;8.81;99.78;97156.78;4992150;28;20609;-60
2022/03/30 11:11:39;;;;;;;35.50;16.80;;;;;;;8.96;99.31;97152.41;4992114;28;20699;-60
2022/03/30 11:14:25;;;;;;;377.43;135.30;;;;;;;8.94;100.00;97154.38;4991876;28;20217;-60
2022/03/30 11:16:54;;;;;;;35.57;18.67;;;;;;;8.94;100.00;97164.00;4992138;28;20209;-60
2022/03/30 11:19:29;;;;;;;25.47;15.37;;;;;;;8.92;100.00;97160.75;4992260;28;20185;-59
2022/03/30 11:22:07;;;;;;;31.37;19.67;;;;;;;8.91;100.00;97154.72;4991345;28;20184;-61
2022/03/30 11:24:34;;;;;;;29.23;17.50;;;;;;;8.97;100.00;97155.84;4991788;28;20216;-60
2022/03/30 11:27:23;;;;;;;31.13;19.67;;;;;;;9.04;100.00;97161.13;4993318;28;20220;-60
2022/03/30 11:30:13;;;;;;;21.17;13.03;;;;;;;9.10;100.00;97157.81;5010917;28;20195;-61
2022/03/30 11:33:02;;;;;;;18.10;11.53;;;;;;;9.21;98.94;97152.19;5010041;28;20203;-61
2022/03/30 11:35:32;;;;;;;22.40;13.00;;;;;;;9.07;99.97;97152.97;4991264;28;20707;-61
2022/03/30 11:38:09;;;;;;;17.93;11.33;;;;;;;9.24;99.05;97149.22;4991940;28;20582;-61
2022/03/30 11:40:39;;;;;;;19.47;11.97;;;;;;;9.40;98.49;97155.25;4991291;28;20193;-60
2022/03/30 11:43:08;;;;;;;24.77;13.43;;;;;;;9.72;98.26;97148.00;4991923;28;20191;-60
2022/03/30 11:45:36;;;;;;;16.37;11.10;;;;;;;9.96;96.13;97141.69;4991359;28;20226;-60
2022/03/30 11:48:06;;;;;;;19.97;11.83;;;;;;;10.26;95.26;97138.19;4991596;28;20185;-61